Time;durP1;ratioP1;P1;durP2;ratioP2;P2;SDS_P1;SDS_P2;PMS_P1;PMS_P2;Temp;Humidity;BMP_temperature;BMP_pressure;BME280_temperature;BME280_humidity;BME280_pressure;Samples;Min_cycle;Max_cycle;Signal;HPM_P1;HPM_P2
2024/04/19 00:00:22;;;;;;;1.67;0.90;;;21.20;35.90;;;;;;5452409;26;20232;-63
2024/04/19 00:02:48;;;;;;;1.67;1.00;;;21.20;35.90;;;;;;5452361;26;20266;-64
2024/04/19 00:05:17;;;;;;;2.78;1.00;;;21.30;36.60;;;;;;5451599;26;20239;-62
2024/04/19 00:07:43;;;;;;;2.08;0.98;;;21.20;35.90;;;;;;5452191;26;20627;-63
2024/04/19 00:10:11;;;;;;;2.97;1.17;;;21.30;36.00;;;;;;5452255;26;20216;-62
2024/04/19 00:12:38;;;;;;;2.53;1.15;;;21.30;36.00;;;;;;5452013;26;20600;-63
2024/04/19 00:15:10;;;;;;;2.80;1.00;;;21.30;36.10;;;;;;5452437;26;20750;-63
2024/04/19 00:17:36;;;;;;;2.15;1.05;;;21.20;36.00;;;;;;5452134;26;20271;-62
2024/04/19 00:20:06;;;;;;;1.60;0.93;;;21.20;36.00;;;;;;5451844;26;20219;-62
2024/04/19 00:22:32;;;;;;;2.40;0.90;;;21.20;36.10;;;;;;5451801;26;20266;-63
2024/04/19 00:25:00;;;;;;;2.85;1.00;;;21.20;36.80;;;;;;5451949;26;20687;-63
2024/04/19 00:27:29;;;;;;;3.05;1.23;;;21.20;36.20;;;;;;5451728;26;20773;-65
2024/04/19 00:29:55;;;;;;;3.50;0.93;;;21.10;36.80;;;;;;5451725;26;20254;-62
2024/04/19 00:32:26;;;;;;;2.78;1.02;;;21.20;36.20;;;;;;5451819;26;20299;-63
2024/04/19 00:34:52;;;;;;;3.55;1.20;;;21.10;36.20;;;;;;5451642;26;20262;-62
2024/04/19 00:37:21;;;;;;;2.80;1.13;;;21.20;36.30;;;;;;5451710;26;20236;-62
2024/04/19 00:39:47;;;;;;;1.88;0.80;;;21.10;36.30;;;;;;5451541;26;20254;-63
2024/04/19 00:42:16;;;;;;;1.70;0.95;;;21.10;36.30;;;;;;5451401;26;20244;-62
2024/04/19 00:44:42;;;;;;;2.10;0.90;;;21.10;36.30;;;;;;5451844;26;20297;-62
2024/04/19 00:47:11;;;;;;;2.17;0.90;;;21.10;36.30;;;;;;5451642;26;20236;-62
2024/04/19 00:49:39;;;;;;;3.80;1.15;;;21.10;36.30;;;;;;5451381;26;20212;-62
2024/04/19 00:52:10;;;;;;;2.28;1.20;;;21.10;36.30;;;;;;5451442;26;20271;-63
2024/04/19 00:54:36;;;;;;;6.53;1.23;;;21.20;36.40;;;;;;5451647;26;20220;-62
2024/04/19 00:57:06;;;;;;;2.50;1.20;;;21.20;36.30;;;;;;5451187;26;21023;-62
2024/04/19 00:59:32;;;;;;;2.85;1.13;;;21.20;36.30;;;;;;5451452;26;20224;-62
2024/04/19 01:02:01;;;;;;;1.27;1.00;;;21.20;36.30;;;;;;5451289;26;20266;-62
2024/04/19 01:04:27;;;;;;;2.50;0.93;;;21.30;36.30;;;;;;5450619;26;20733;-62
2024/04/19 01:06:58;;;;;;;1.23;1.00;;;21.20;36.20;;;;;;5451133;26;20282;-62
2024/04/19 01:09:24;;;;;;;1.33;0.88;;;21.30;36.30;;;;;;5451098;26;20324;-62
2024/04/19 01:11:52;;;;;;;1.85;1.08;;;21.20;36.20;;;;;;5451145;26;20244;-62
2024/04/19 01:14:19;;;;;;;2.80;1.08;;;21.20;36.20;;;;;;5451115;26;20268;-62
2024/04/19 01:16:47;;;;;;;2.70;1.08;;;21.20;36.30;;;;;;5453559;26;20231;-62
2024/04/19 01:19:13;;;;;;;2.40;1.00;;;21.20;36.30;;;;;;5454828;26;20220;-62
2024/04/19 01:21:42;;;;;;;3.35;1.02;;;21.20;36.90;;;;;;5454718;26;20764;-62
2024/04/19 01:24:17;;;;;;;2.35;1.00;;;21.20;36.30;;;;;;5454689;26;20215;-62
2024/04/19 01:26:48;;;;;;;2.10;1.00;;;21.20;36.40;;;;;;5454346;26;20227;-62
2024/04/19 01:29:14;;;;;;;2.60;1.00;;;21.10;36.30;;;;;;5454653;26;20212;-62
2024/04/19 01:31:43;;;;;;;2.15;1.05;;;21.10;37.00;;;;;;5454514;26;20223;-62
2024/04/19 01:34:09;;;;;;;3.38;1.10;;;21.10;36.40;;;;;;5454257;26;20263;-62
2024/04/19 01:36:37;;;;;;;3.25;1.17;;;21.10;37.10;;;;;;5454202;26;20701;-62
2024/04/19 01:39:03;;;;;;;3.67;1.02;;;21.10;36.50;;;;;;5454678;26;20254;-62
2024/04/19 01:41:32;;;;;;;3.45;1.08;;;21.00;36.50;;;;;;5454064;26;20262;-62
2024/04/19 01:44:01;;;;;;;2.05;1.10;;;21.00;37.20;;;;;;5454511;26;20251;-62
2024/04/19 01:46:29;;;;;;;2.83;0.90;;;21.00;37.20;;;;;;5454466;26;20698;-62
2024/04/19 01:48:56;;;;;;;3.05;1.05;;;21.00;36.40;;;;;;5451917;26;20219;-62
2024/04/19 01:51:24;;;;;;;3.40;0.90;;;21.00;36.40;;;;;;5453769;26;20244;-62
2024/04/19 01:53:53;;;;;;;1.70;1.10;;;21.10;36.50;;;;;;5454190;26;20274;-62
2024/04/19 01:56:19;;;;;;;2.38;0.93;;;21.10;36.40;;;;;;5454057;26;20258;-62
2024/04/19 01:58:47;;;;;;;3.55;1.10;;;21.10;36.30;;;;;;5454375;26;20296;-62
2024/04/19 02:01:17;;;;;;;2.20;1.05;;;21.20;36.40;;;;;;5454193;26;20250;-62
2024/04/19 02:03:46;;;;;;;1.42;0.80;;;21.20;36.40;;;;;;5453662;26;20236;-62
2024/04/19 02:06:13;;;;;;;2.33;1.08;;;21.20;37.00;;;;;;5454321;26;20219;-62
2024/04/19 02:08:41;;;;;;;2.78;1.00;;;21.20;36.30;;;;;;5453164;26;20353;-62
2024/04/19 02:11:07;;;;;;;2.55;1.25;;;21.20;36.70;;;;;;5453817;26;20266;-62
2024/04/19 02:13:36;;;;;;;2.85;0.90;;;21.20;36.40;;;;;;5454045;26;20344;-62
2024/04/19 02:16:03;;;;;;;2.45;1.00;;;21.20;36.50;;;;;;5454010;26;20255;-63
2024/04/19 02:18:34;;;;;;;2.55;1.20;;;21.20;36.40;;;;;;5453662;26;20586;-62
2024/04/19 02:21:01;;;;;;;2.15;0.90;;;21.10;36.40;;;;;;5453809;26;20216;-65
2024/04/19 02:23:43;;;;;;;1.98;0.85;;;21.10;36.40;;;;;;5453780;26;20301;-63
2024/04/19 02:26:12;;;;;;;1.52;0.80;;;21.10;36.50;;;;;;5453333;26;20216;-62
2024/04/19 02:31:26;;;;;;;2.97;1.20;;;21.10;36.60;;;;;;5457056;26;20261;-62
2024/04/19 02:33:58;;;;;;;2.22;0.88;;;21.00;36.60;;;;;;5453675;26;20262;-62
2024/04/19 02:36:26;;;;;;;2.70;0.90;;;21.00;37.30;;;;;;5453518;26;20270;-63
2024/04/19 02:38:55;;;;;;;1.88;0.77;;;21.00;36.70;;;;;;5453481;26;20232;-62
2024/04/19 02:41:23;;;;;;;2.72;0.98;;;21.00;36.70;;;;;;5453473;26;20228;-62
2024/04/19 02:43:52;;;;;;;3.33;1.00;;;21.00;37.40;;;;;;5453863;26;20240;-62
2024/04/19 02:46:20;;;;;;;2.80;0.90;;;21.00;36.70;;;;;;5453311;26;20228;-63
2024/04/19 02:48:51;;;;;;;2.28;0.90;;;21.00;36.70;;;;;;5453510;26;20765;-62
2024/04/19 02:51:22;;;;;;;2.75;1.10;;;21.00;36.80;;;;;;5453837;26;20787;-62
2024/04/19 02:53:51;;;;;;;3.42;1.10;;;21.00;36.70;;;;;;5453171;26;20255;-62
2024/04/19 02:56:19;;;;;;;2.25;1.05;;;21.10;36.70;;;;;;5453485;26;20215;-62
2024/04/19 02:58:48;;;;;;;1.95;1.08;;;21.10;36.70;;;;;;5453233;26;20223;-62
2024/04/19 03:01:16;;;;;;;3.22;0.85;;;21.10;36.60;;;;;;5453245;26;20641;-62
2024/04/19 03:03:45;;;;;;;3.50;1.20;;;21.10;36.60;;;;;;5452955;26;20290;-63
2024/04/19 03:06:13;;;;;;;1.98;0.98;;;21.20;36.60;;;;;;5453385;26;20292;-62
2024/04/19 03:08:45;;;;;;;2.45;1.00;;;21.20;37.30;;;;;;5452761;26;20290;-62
2024/04/19 03:11:14;;;;;;;2.72;1.00;;;21.20;36.60;;;;;;5453118;26;20698;-63
2024/04/19 03:13:42;;;;;;;1.35;0.80;;;21.20;37.30;;;;;;5453564;26;20282;-62
2024/04/19 03:16:11;;;;;;;2.00;0.98;;;21.20;36.60;;;;;;5452792;26;20224;-62
2024/04/19 03:18:42;;;;;;;2.47;1.00;;;21.20;37.40;;;;;;5452912;26;20231;-63
2024/04/19 03:21:10;;;;;;;1.95;0.98;;;21.10;36.60;;;;;;5453247;26;20228;-63
2024/04/19 03:23:39;;;;;;;2.83;1.00;;;21.10;36.70;;;;;;5452599;26;20231;-62
2024/04/19 03:26:10;;;;;;;1.73;0.98;;;21.10;36.70;;;;;;5453164;26;20212;-63
2024/04/19 03:28:39;;;;;;;2.75;1.00;;;21.10;36.80;;;;;;5452813;26;20244;-62
2024/04/19 03:31:09;;;;;;;2.47;0.98;;;21.10;36.80;;;;;;5452460;26;20220;-63
2024/04/19 03:33:38;;;;;;;2.17;0.95;;;21.00;36.90;;;;;;5452758;26;20235;-63
2024/04/19 03:36:08;;;;;;;2.55;1.10;;;21.00;36.90;;;;;;5452710;26;20271;-62
2024/04/19 03:38:36;;;;;;;3.17;1.02;;;21.00;37.10;;;;;;5451370;26;20749;-63
2024/04/19 03:41:05;;;;;;;2.53;1.13;;;21.00;37.20;;;;;;5452889;26;20550;-63
2024/04/19 03:43:41;;;;;;;2.55;0.77;;;21.00;37.20;;;;;;5452626;26;20243;-62
2024/04/19 03:46:07;;;;;;;2.13;0.95;;;20.90;37.20;;;;;;5452520;26;20219;-62
2024/04/19 03:48:36;;;;;;;2.05;1.00;;;20.90;37.20;;;;;;5452658;26;20240;-63
2024/04/19 03:51:05;;;;;;;4.15;1.10;;;21.00;37.20;;;;;;5452436;26;20255;-62
2024/04/19 03:53:33;;;;;;;2.85;0.95;;;21.00;37.20;;;;;;5452171;26;20567;-62
2024/04/19 03:56:02;;;;;;;2.70;1.08;;;21.00;37.20;;;;;;5452507;26;20336;-63
2024/04/19 03:58:30;;;;;;;3.10;1.20;;;21.00;37.20;;;;;;5452620;26;20270;-64
2024/04/19 04:01:07;;;;;;;1.52;0.98;;;21.00;37.20;;;;;;5452263;26;20254;-62
2024/04/19 04:03:35;;;;;;;2.03;1.00;;;21.10;37.30;;;;;;5452200;26;20232;-62
2024/04/19 04:06:04;;;;;;;2.63;1.20;;;21.10;37.30;;;;;;5452223;26;20220;-63
2024/04/19 04:08:32;;;;;;;3.13;1.13;;;21.10;37.30;;;;;;5452009;26;20859;-62
2024/04/19 04:11:02;;;;;;;2.42;1.05;;;21.10;37.20;;;;;;5452348;26;20254;-62
2024/04/19 04:13:30;;;;;;;1.75;1.02;;;21.10;37.20;;;;;;5452145;26;20278;-63
2024/04/19 04:16:01;;;;;;;2.08;0.88;;;21.10;37.20;;;;;;5451854;26;20744;-62
2024/04/19 04:18:30;;;;;;;2.10;0.98;;;21.10;37.20;;;;;;5451956;26;20266;-63
2024/04/19 04:20:58;;;;;;;1.98;1.00;;;21.10;37.30;;;;;;5452203;26;20216;-62
2024/04/19 04:23:27;;;;;;;1.00;0.80;;;21.10;37.90;;;;;;5451606;26;20232;-62
2024/04/19 04:25:56;;;;;;;1.95;0.80;;;21.10;37.30;;;;;;5451957;26;20254;-62
2024/04/19 04:28:24;;;;;;;1.77;0.82;;;21.10;37.30;;;;;;5451812;26;20274;-62
2024/04/19 04:30:53;;;;;;;2.13;0.88;;;21.10;37.30;;;;;;5451712;26;20587;-62
2024/04/19 04:33:24;;;;;;;2.22;1.00;;;21.00;37.90;;;;;;5452087;26;20227;-63
2024/04/19 04:35:53;;;;;;;1.83;0.80;;;21.00;37.20;;;;;;5451707;26;20215;-62
2024/04/19 04:38:22;;;;;;;2.28;1.17;;;21.00;37.90;;;;;;5451767;26;20232;-62
2024/04/19 04:40:50;;;;;;;2.80;1.02;;;21.00;37.90;;;;;;5451745;26;20254;-64
2024/04/19 04:43:19;;;;;;;3.45;1.10;;;21.00;37.20;;;;;;5451461;26;20263;-65
2024/04/19 04:45:48;;;;;;;2.53;0.90;;;20.90;37.20;;;;;;5451557;26;20256;-64
2024/04/19 04:48:17;;;;;;;1.90;0.90;;;21.00;37.30;;;;;;5451545;26;20232;-64
2024/04/19 04:50:48;;;;;;;1.52;0.90;;;21.00;37.30;;;;;;5453875;26;20706;-64
2024/04/19 04:53:17;;;;;;;3.42;1.00;;;21.00;37.30;;;;;;5454768;26;20232;-64
2024/04/19 04:55:45;;;;;;;2.35;1.10;;;21.00;37.30;;;;;;5455236;26;20262;-64
2024/04/19 04:58:14;;;;;;;2.95;1.00;;;21.00;37.40;;;;;;5454988;26;20228;-65
2024/04/19 05:00:43;;;;;;;1.55;0.98;;;21.00;37.40;;;;;;5454631;26;20248;-64
2024/04/19 05:03:11;;;;;;;4.22;0.90;;;21.10;37.50;;;;;;5455072;26;20232;-65
2024/04/19 05:05:40;;;;;;;2.50;0.82;;;21.10;38.10;;;;;;5454863;26;20236;-64
2024/04/19 05:08:11;;;;;;;2.25;1.02;;;21.10;37.40;;;;;;5454510;26;20232;-64
2024/04/19 05:10:40;;;;;;;2.88;1.05;;;21.20;37.50;;;;;;5454899;26;20576;-64
2024/04/19 05:13:08;;;;;;;2.58;1.08;;;21.10;37.40;;;;;;5454790;26;20240;-64
2024/04/19 05:15:37;;;;;;;1.80;0.98;;;21.10;37.40;;;;;;5454494;26;20254;-63
2024/04/19 05:18:06;;;;;;;1.95;0.90;;;21.20;38.10;;;;;;5454811;26;20231;-65
2024/04/19 05:20:34;;;;;;;2.15;1.20;;;21.10;37.40;;;;;;5454697;26;20250;-65
2024/04/19 05:23:03;;;;;;;2.03;1.00;;;21.10;37.40;;;;;;5454215;26;20274;-64
2024/04/19 05:25:37;;;;;;;2.45;0.95;;;21.10;38.00;;;;;;5454725;26;20251;-65
2024/04/19 05:28:06;;;;;;;1.95;1.05;;;21.10;37.40;;;;;;5454475;26;20227;-65
2024/04/19 05:30:35;;;;;;;3.47;1.05;;;21.10;37.50;;;;;;5454295;26;20263;-65
2024/04/19 05:33:05;;;;;;;4.70;1.27;;;21.00;37.50;;;;;;5454380;26;20247;-64
2024/04/19 05:35:34;;;;;;;2.30;1.05;;;21.00;37.60;;;;;;5454429;26;20254;-64
2024/04/19 05:38:03;;;;;;;2.28;0.93;;;21.00;37.70;;;;;;5454207;26;20734;-64
2024/04/19 05:40:34;;;;;;;2.97;1.27;;;21.00;37.80;;;;;;5454577;26;20216;-64
2024/04/19 05:43:03;;;;;;;2.67;1.00;;;21.00;37.80;;;;;;5454266;26;20231;-64
2024/04/19 05:45:32;;;;;;;1.95;0.82;;;21.00;38.50;;;;;;5454238;26;20752;-64
2024/04/19 05:48:00;;;;;;;2.75;0.98;;;20.90;37.80;;;;;;5454291;26;20232;-65
2024/04/19 05:50:30;;;;;;;1.73;0.77;;;20.90;38.60;;;;;;5454312;26;20251;-64
2024/04/19 05:52:58;;;;;;;1.83;0.88;;;20.90;37.90;;;;;;5454056;26;20227;-64
2024/04/19 05:55:27;;;;;;;2.97;0.90;;;20.90;37.90;;;;;;5454145;26;20579;-62
2024/04/19 05:57:58;;;;;;;3.35;1.00;;;20.90;38.00;;;;;;5454562;26;20792;-62
2024/04/19 06:00:27;;;;;;;4.50;1.13;;;20.90;38.00;;;;;;5453800;26;20219;-64
2024/04/19 06:02:55;;;;;;;2.10;0.98;;;21.00;38.10;;;;;;5453442;26;20274;-64
2024/04/19 06:05:24;;;;;;;3.05;1.20;;;21.00;38.20;;;;;;5454136;26;20236;-64
2024/04/19 06:07:52;;;;;;;3.05;1.00;;;21.00;38.10;;;;;;5453802;26;20283;-65
2024/04/19 06:10:21;;;;;;;2.33;1.00;;;21.00;38.10;;;;;;5454035;26;20220;-65
2024/04/19 06:12:50;;;;;;;2.47;1.08;;;21.10;38.10;;;;;;5453701;26;20232;-65
2024/04/19 06:15:21;;;;;;;2.55;1.13;;;21.10;38.20;;;;;;5453843;26;20220;-64
2024/04/19 06:17:50;;;;;;;2.92;1.08;;;21.10;38.10;;;;;;5453607;26;20228;-64
2024/04/19 06:20:18;;;;;;;2.58;0.98;;;21.10;38.10;;;;;;5454178;26;20553;-64
2024/04/19 06:22:47;;;;;;;3.63;1.20;;;21.10;38.10;;;;;;5453579;26;20282;-64
2024/04/19 06:25:16;;;;;;;1.50;0.80;;;21.10;38.00;;;;;;5453856;26;20224;-62
2024/04/19 06:27:44;;;;;;;3.08;1.05;;;21.10;38.10;;;;;;5453666;26;20278;-64
2024/04/19 06:30:13;;;;;;;3.10;0.90;;;21.10;38.20;;;;;;5453372;26;20252;-64
2024/04/19 06:32:44;;;;;;;2.53;0.98;;;21.10;38.10;;;;;;5453369;26;20624;-65
2024/04/19 06:35:16;;;;;;;2.45;0.90;;;21.00;38.80;;;;;;5453568;26;20739;-64
2024/04/19 06:37:44;;;;;;;2.45;1.13;;;21.10;38.20;;;;;;5451476;26;20369;-65
2024/04/19 06:40:13;;;;;;;3.15;0.90;;;21.10;38.90;;;;;;5445438;26;20251;-65
2024/04/19 06:42:41;;;;;;;3.47;1.00;;;21.00;38.30;;;;;;5448068;26;20277;-65
2024/04/19 06:45:10;;;;;;;4.20;1.20;;;21.00;38.30;;;;;;5451530;26;20232;-64
2024/04/19 06:47:40;;;;;;;5.00;1.20;;;21.00;38.30;;;;;;5452523;26;20276;-64
2024/04/19 06:50:11;;;;;;;4.45;1.42;;;21.00;38.40;;;;;;5447136;26;20235;-66
2024/04/19 06:52:40;;;;;;;4.22;1.40;;;21.00;38.50;;;;;;5448887;26;20252;-65
2024/04/19 06:55:10;;;;;;;5.22;1.42;;;21.00;38.60;;;;;;5451585;26;20628;-65
2024/04/19 06:57:38;;;;;;;5.63;1.10;;;20.90;38.60;;;;;;5426481;26;20301;-65
2024/04/19 07:00:08;;;;;;;4.60;1.20;;;21.00;38.80;;;;;;5435499;26;20240;-65
2024/04/19 07:02:37;;;;;;;5.68;1.35;;;21.00;38.90;;;;;;5451754;26;20232;-66
2024/04/19 07:05:06;;;;;;;5.53;1.15;;;21.10;39.00;;;;;;5452237;26;20232;-65
2024/04/19 07:07:37;;;;;;;2.28;1.10;;;21.10;39.00;;;;;;5451728;26;20282;-65
2024/04/19 07:10:07;;;;;;;4.38;1.27;;;21.20;39.00;;;;;;5413846;26;20597;-65
2024/04/19 07:12:36;;;;;;;6.65;1.20;;;21.30;39.00;;;;;;5415439;26;20269;-65
2024/04/19 07:15:05;;;;;;;4.90;1.05;;;21.30;38.90;;;;;;5415342;26;20221;-65
2024/04/19 07:17:35;;;;;;;5.32;1.38;;;21.30;38.90;;;;;;5416299;26;20245;-66
2024/04/19 07:20:04;;;;;;;4.85;1.33;;;21.30;38.80;;;;;;5416257;26;20255;-66
2024/04/19 07:22:33;;;;;;;6.25;1.10;;;21.40;39.50;;;;;;5415579;26;20723;-65
2024/04/19 07:25:04;;;;;;;3.00;1.05;;;21.40;38.90;;;;;;5415680;26;20272;-65
2024/04/19 07:27:33;;;;;;;2.65;1.10;;;21.40;39.00;;;;;;5416276;26;20237;-65
2024/04/19 07:30:02;;;;;;;4.38;1.30;;;21.40;39.60;;;;;;5415715;26;20263;-65
2024/04/19 07:32:31;;;;;;;3.20;1.08;;;21.40;39.00;;;;;;5415852;26;20237;-65
2024/04/19 07:34:59;;;;;;;2.72;1.45;;;21.40;38.80;;;;;;5442672;26;20265;-63
2024/04/19 07:37:29;;;;;;;3.15;1.15;;;21.40;38.80;;;;;;5488400;26;21031;-63
2024/04/19 07:39:57;;;;;;;3.08;1.10;;;21.40;38.90;;;;;;5487608;26;21062;-65
2024/04/19 07:42:32;;;;;;;3.25;1.20;;;21.40;38.80;;;;;;5487662;26;20779;-65
2024/04/19 07:45:01;;;;;;;3.17;1.23;;;21.40;38.90;;;;;;5487986;26;20565;-65
2024/04/19 07:47:30;;;;;;;3.70;1.35;;;21.40;39.00;;;;;;5440802;26;20266;-65
2024/04/19 07:49:59;;;;;;;4.45;1.20;;;21.40;39.10;;;;;;5448444;26;20287;-65
2024/04/19 07:52:27;;;;;;;3.13;1.50;;;21.40;39.20;;;;;;5446145;26;20231;-66
2024/04/19 07:54:56;;;;;;;3.53;1.40;;;21.40;39.90;;;;;;5414309;26;20252;-66
2024/04/19 07:57:25;;;;;;;5.65;1.40;;;21.40;39.30;;;;;;5415160;26;20236;-66
2024/04/19 07:59:56;;;;;;;6.20;1.88;;;21.30;39.30;;;;;;5414870;26;20221;-64
2024/04/19 08:02:24;;;;;;;6.07;1.48;;;21.30;39.30;;;;;;5415035;26;20574;-64
2024/04/19 08:04:53;;;;;;;4.80;1.15;;;21.30;39.30;;;;;;5435542;26;20293;-65
2024/04/19 08:07:25;;;;;;;4.15;1.05;;;21.40;40.10;;;;;;5450971;26;20267;-65
2024/04/19 08:09:54;;;;;;;5.10;1.45;;;21.40;39.50;;;;;;5450623;26;20263;-65
2024/04/19 08:12:23;;;;;;;5.63;1.60;;;21.40;39.40;;;;;;5450428;26;20220;-63
2024/04/19 08:14:51;;;;;;;6.32;1.73;;;21.50;40.20;;;;;;5450889;26;20266;-64
2024/04/19 08:17:23;;;;;;;5.50;1.70;;;21.50;39.60;;;;;;5443297;26;20247;-63
2024/04/19 08:19:52;;;;;;;4.15;2.70;;;21.50;39.50;;;;;;5449315;26;20278;-63
2024/04/19 08:22:21;;;;;;;6.45;3.13;;;21.50;39.50;;;;;;5450130;26;20224;-64
2024/04/19 08:24:49;;;;;;;6.97;2.70;;;21.50;39.50;;;;;;5451159;26;20215;-62
2024/04/19 08:27:18;;;;;;;7.00;2.30;;;21.60;39.70;;;;;;5453369;26;20273;-63
2024/04/19 08:29:46;;;;;;;7.75;2.35;;;21.60;39.60;;;;;;5454197;26;20839;-63
2024/04/19 08:32:16;;;;;;;5.32;2.70;;;21.60;39.60;;;;;;5440221;26;20847;-63
2024/04/19 08:34:50;;;;;;;8.00;2.60;;;21.70;39.70;;;;;;5444214;26;20286;-64
2024/04/19 08:37:19;;;;;;;6.10;2.40;;;21.70;39.80;;;;;;5448873;26;20224;-63
2024/04/19 08:39:47;;;;;;;4.20;2.10;;;21.60;39.60;;;;;;5448811;26;20232;-63
2024/04/19 08:42:17;;;;;;;11.52;2.42;;;21.70;39.80;;;;;;5448399;26;20274;-63
2024/04/19 08:44:49;;;;;;;4.03;1.95;;;21.70;39.80;;;;;;5449091;26;20254;-64
2024/04/19 08:47:19;;;;;;;5.35;2.20;;;21.70;39.80;;;;;;5448336;26;20232;-65
2024/04/19 08:49:53;;;;;;;3.78;1.98;;;21.70;39.70;;;;;;5448751;26;20224;-66
2024/04/19 08:52:22;;;;;;;5.88;1.90;;;21.70;39.60;;;;;;5448694;26;20232;-62
2024/04/19 08:54:52;;;;;;;5.80;1.88;;;21.70;39.50;;;;;;5449081;26;20816;-66
2024/04/19 08:57:23;;;;;;;4.15;1.70;;;21.70;39.50;;;;;;5448019;26;20275;-64
2024/04/19 08:59:53;;;;;;;3.28;1.60;;;21.80;39.70;;;;;;5448785;26;20606;-64
2024/04/19 09:02:21;;;;;;;4.93;1.58;;;21.80;39.90;;;;;;5449024;26;20356;-66
2024/04/19 20:06:55;;;;;;;4.50;1.55;;;21.00;42.60;;;;;;5421089;26;20656;-63
2024/04/19 20:09:24;;;;;;;3.15;1.33;;;21.00;43.20;;;;;;5442624;26;20270;-63
2024/04/19 22:30:25;;;;;;;2.42;1.13;;;20.70;43.50;;;;;;5412766;26;20619;-63
2024/04/19 22:32:54;;;;;;;3.30;1.00;;;20.60;43.30;;;;;;5447633;26;20213;-63
2024/04/19 22:35:22;;;;;;;3.03;1.08;;;20.60;43.30;;;;;;5417417;26;20276;-64
2024/04/19 22:37:51;;;;;;;2.60;1.20;;;20.60;43.30;;;;;;5433589;26;20220;-63
2024/04/19 22:40:19;;;;;;;2.78;1.20;;;20.60;43.30;;;;;;5453375;26;20278;-64
2024/04/19 22:42:48;;;;;;;2.80;0.90;;;20.60;43.20;;;;;;5453726;26;20220;-63
2024/04/19 22:45:17;;;;;;;2.10;1.00;;;20.60;43.90;;;;;;5452849;26;20271;-64
2024/04/19 22:47:49;;;;;;;2.42;0.80;;;20.60;43.20;;;;;;5453466;26;20217;-63
2024/04/19 22:50:18;;;;;;;3.60;1.08;;;20.60;43.20;;;;;;5453445;26;20231;-64
2024/04/19 22:52:47;;;;;;;2.08;0.98;;;20.60;43.20;;;;;;5452919;26;20208;-65
2024/04/19 22:55:15;;;;;;;2.45;0.88;;;20.60;43.10;;;;;;5453712;26;20271;-63
2024/04/19 22:57:44;;;;;;;3.25;1.15;;;20.60;43.10;;;;;;5453353;26;20220;-64
2024/04/19 23:00:15;;;;;;;2.25;1.00;;;20.60;43.10;;;;;;5452737;26;20278;-64
2024/04/19 23:02:44;;;;;;;3.33;1.00;;;20.60;43.10;;;;;;5453440;26;20212;-63
2024/04/19 23:05:15;;;;;;;1.85;0.90;;;20.60;43.70;;;;;;5453371;26;20271;-63
2024/04/19 23:07:44;;;;;;;1.75;1.05;;;20.60;43.10;;;;;;5452931;26;20216;-62
2024/04/19 23:10:12;;;;;;;2.10;0.90;;;20.50;43.00;;;;;;5453271;26;20227;-63
2024/04/19 23:12:41;;;;;;;1.80;0.77;;;20.60;43.00;;;;;;5453115;26;20262;-62
2024/04/19 23:15:10;;;;;;;2.92;1.10;;;20.60;43.00;;;;;;5452910;26;20832;-63
2024/04/19 23:17:39;;;;;;;2.80;1.08;;;20.60;43.00;;;;;;5453078;26;20262;-63
2024/04/19 23:20:08;;;;;;;3.50;1.10;;;20.60;43.00;;;;;;5453396;26;20274;-64
2024/04/19 23:22:40;;;;;;;2.25;1.00;;;20.60;43.00;;;;;;5452950;26;20220;-63
2024/04/19 23:25:09;;;;;;;1.52;1.05;;;20.50;43.50;;;;;;5453399;26;20349;-63
2024/04/19 23:27:37;;;;;;;3.40;1.17;;;20.50;42.90;;;;;;5453407;26;20335;-63
2024/04/19 23:30:07;;;;;;;1.77;0.90;;;20.50;43.50;;;;;;5452684;26;20267;-62
2024/04/19 23:32:35;;;;;;;2.00;0.90;;;20.50;42.90;;;;;;5452918;26;20215;-63
2024/04/19 23:35:04;;;;;;;3.17;1.00;;;20.50;42.90;;;;;;5452930;26;20228;-63
2024/04/19 23:37:34;;;;;;;2.35;1.00;;;20.50;42.90;;;;;;5452586;26;20266;-64
2024/04/19 23:40:06;;;;;;;3.00;1.02;;;20.50;42.80;;;;;;5452517;26;20270;-64
2024/04/19 23:42:35;;;;;;;2.63;1.10;;;20.50;42.80;;;;;;5452871;26;20713;-64
2024/04/19 23:45:03;;;;;;;2.40;1.10;;;20.50;43.50;;;;;;5452572;26;20296;-63
2024/04/19 23:47:32;;;;;;;2.10;1.17;;;20.50;42.80;;;;;;5452738;26;20266;-62
2024/04/19 23:50:01;;;;;;;2.95;1.25;;;20.50;42.80;;;;;;5452655;26;20227;-65
2024/04/19 23:52:29;;;;;;;1.73;0.90;;;20.50;42.80;;;;;;5452508;26;20254;-65
2024/04/19 23:54:58;;;;;;;1.63;0.80;;;20.50;42.70;;;;;;5451602;26;20258;-63
2024/04/19 23:57:29;;;;;;;1.95;1.00;;;20.50;42.80;;;;;;5452644;26;20631;-63
2024/04/19 23:59:57;;;;;;;2.38;1.20;;;20.50;42.80;;;;;;5452226;26;20730;-68
